createdAt,value
2022-11-18T00:00:01.523Z,11.10
2022-11-18T00:02:31.202Z,11.00
2022-11-18T00:04:59.116Z,10.90
2022-11-18T00:07:28.027Z,10.90
2022-11-18T00:09:56.251Z,10.90
2022-11-18T00:12:41.470Z,10.80
2022-11-18T00:15:09.803Z,10.80
2022-11-18T00:17:39.029Z,10.80
2022-11-18T00:20:07.754Z,10.70
2022-11-18T00:22:35.720Z,10.70
2022-11-18T00:25:03.590Z,10.80
2022-11-18T00:27:32.050Z,10.80
2022-11-18T00:29:59.885Z,10.70
2022-11-18T00:32:27.726Z,10.70
2022-11-18T00:34:56.919Z,10.60
2022-11-18T00:37:24.781Z,10.70
2022-11-18T00:39:52.594Z,10.70
2022-11-18T00:42:37.886Z,10.70
2022-11-18T00:45:06.400Z,10.60
2022-11-18T00:47:34.230Z,10.60
2022-11-18T00:50:03.399Z,10.60
2022-11-18T00:52:31.254Z,10.60
2022-11-18T00:54:59.079Z,10.60
2022-11-18T00:57:26.978Z,10.50
2022-11-18T00:59:54.855Z,10.40
2022-11-18T01:02:22.895Z,10.50
2022-11-18T01:04:50.827Z,10.50
2022-11-18T01:07:20.225Z,10.40
2022-11-18T01:09:48.112Z,10.40
2022-11-18T01:12:33.258Z,10.30
2022-11-18T01:15:01.290Z,10.40
2022-11-18T01:17:31.452Z,10.30
2022-11-18T01:19:59.637Z,10.20
2022-11-18T01:22:28.867Z,10.20
2022-11-18T01:24:56.739Z,10.20
2022-11-18T01:27:24.651Z,10.20
2022-11-18T01:29:52.497Z,10.20
2022-11-18T01:32:25.356Z,10.20
2022-11-18T01:34:53.548Z,10.20
2022-11-18T01:37:21.422Z,10.20
2022-11-18T01:39:50.585Z,10.20
2022-11-18T01:42:19.256Z,10.20
2022-11-18T01:45:09.387Z,10.10
2022-11-18T01:47:40.783Z,10.10
2022-11-18T01:50:10.539Z,10.10
2022-11-18T01:52:38.735Z,10.10
2022-11-18T01:55:14.050Z,10.00
2022-11-18T01:57:43.149Z,10.00
2022-11-18T02:00:12.726Z,9.90
2022-11-18T02:02:40.695Z,9.90
2022-11-18T02:05:11.803Z,9.90
2022-11-18T02:07:43.100Z,9.80
2022-11-18T02:10:20.592Z,9.70
2022-11-18T02:12:48.955Z,9.70
2022-11-18T02:15:17.643Z,9.60
2022-11-18T02:17:53.000Z,9.70
2022-11-18T02:20:37.283Z,9.70
2022-11-18T02:23:37.186Z,9.60
2022-11-18T02:26:38.741Z,9.60
2022-11-18T02:29:11.206Z,9.60
2022-11-18T02:31:47.851Z,9.70
2022-11-18T02:34:25.262Z,9.70
2022-11-18T02:36:58.275Z,9.70
2022-11-18T02:39:34.991Z,9.70
2022-11-18T02:42:05.596Z,9.70
2022-11-18T02:44:38.033Z,9.70
2022-11-18T02:47:09.687Z,9.70
2022-11-18T02:49:42.230Z,9.70
2022-11-18T02:52:12.436Z,9.60
2022-11-18T02:54:43.184Z,9.50
2022-11-18T02:57:11.557Z,9.50
2022-11-18T02:59:40.894Z,9.50
2022-11-18T03:02:11.012Z,9.50
2022-11-18T03:04:38.982Z,9.60
2022-11-18T03:07:14.202Z,9.60
2022-11-18T03:09:45.343Z,9.50
2022-11-18T03:12:22.597Z,9.50
2022-11-18T03:15:01.056Z,9.60
2022-11-18T03:17:39.339Z,9.60
2022-11-18T03:20:17.053Z,9.60
2022-11-18T03:22:50.995Z,9.60
2022-11-18T03:25:22.890Z,9.70
2022-11-18T03:27:57.944Z,9.60
2022-11-18T03:30:27.842Z,9.60
2022-11-18T03:33:00.958Z,9.50
2022-11-18T03:35:32.081Z,9.60
2022-11-18T03:38:06.085Z,9.50
2022-11-18T03:40:38.087Z,9.50
2022-11-18T03:43:11.900Z,9.50
2022-11-18T03:45:45.333Z,9.50
2022-11-18T03:48:17.014Z,9.40
2022-11-18T03:50:49.115Z,9.40
2022-11-18T03:53:19.862Z,9.50
2022-11-18T03:55:52.243Z,9.50
2022-11-18T03:58:25.762Z,9.50
2022-11-18T04:01:04.823Z,9.40
2022-11-18T04:03:32.908Z,9.50
2022-11-18T04:06:10.760Z,9.50
2022-11-18T04:08:43.380Z,9.50
2022-11-18T04:11:36.050Z,9.40
2022-11-18T04:14:05.136Z,9.40
2022-11-18T04:16:40.703Z,9.40
2022-11-18T04:19:08.618Z,9.40
2022-11-18T04:21:36.833Z,9.30
2022-11-18T04:24:05.062Z,9.40
2022-11-18T04:26:32.925Z,9.40
2022-11-18T04:29:00.783Z,9.40
2022-11-18T04:31:28.620Z,9.40
2022-11-18T04:33:57.799Z,9.40
2022-11-18T04:36:25.655Z,9.40
2022-11-18T04:38:53.809Z,9.50
2022-11-18T04:41:41.673Z,9.50
2022-11-18T04:44:13.185Z,9.50
2022-11-18T04:46:42.740Z,9.50
2022-11-18T04:49:13.904Z,9.50
2022-11-18T04:51:41.916Z,9.50
2022-11-18T04:54:10.458Z,9.40
2022-11-18T04:56:40.029Z,9.50
2022-11-18T04:59:11.222Z,9.50
2022-11-18T05:01:39.181Z,9.40
2022-11-18T05:04:13.470Z,9.40
2022-11-18T05:06:41.578Z,9.30
2022-11-18T05:09:09.609Z,9.40
2022-11-18T05:11:54.921Z,9.30
2022-11-18T05:14:22.887Z,9.30
2022-11-18T05:16:50.726Z,9.30
2022-11-18T05:19:20.383Z,9.30
2022-11-18T05:21:48.391Z,9.20
2022-11-18T05:24:16.335Z,9.10
2022-11-18T05:26:44.407Z,9.10
2022-11-18T05:29:12.933Z,9.10
2022-11-18T05:31:40.788Z,9.10
2022-11-18T05:34:08.766Z,9.10
2022-11-18T05:36:38.113Z,9.10
2022-11-18T05:39:06.344Z,9.20
2022-11-18T05:41:51.578Z,9.20
2022-11-18T05:44:19.611Z,9.10
2022-11-18T05:46:47.526Z,9.00
2022-11-18T05:49:15.584Z,9.10
2022-11-18T05:51:45.098Z,9.10
2022-11-18T05:54:15.367Z,9.10
2022-11-18T05:56:44.870Z,9.10
2022-11-18T05:59:13.830Z,9.10
2022-11-18T06:01:44.627Z,9.00
2022-11-18T06:04:17.744Z,9.10
2022-11-18T06:06:50.135Z,9.10
2022-11-18T06:09:20.260Z,9.00
2022-11-18T06:11:52.594Z,9.00
2022-11-18T06:14:23.592Z,9.00
2022-11-18T06:16:57.446Z,8.90
2022-11-18T06:19:26.075Z,9.00
2022-11-18T06:21:55.732Z,9.00
2022-11-18T06:24:23.789Z,9.00
2022-11-18T06:26:52.041Z,9.00
2022-11-18T06:29:27.221Z,8.90
2022-11-18T06:31:55.259Z,9.00
2022-11-18T06:34:23.213Z,9.00
2022-11-18T06:36:51.103Z,8.90
2022-11-18T06:39:20.762Z,8.90
2022-11-18T06:41:48.806Z,8.80
2022-11-18T06:44:15.698Z,8.90
2022-11-18T06:46:58.615Z,9.00
2022-11-18T06:49:27.791Z,9.00
2022-11-18T06:51:56.207Z,9.00
2022-11-18T06:54:25.387Z,9.00
2022-11-18T06:56:53.221Z,9.00
2022-11-18T06:59:24.384Z,8.90
2022-11-18T07:01:53.465Z,9.00
2022-11-18T07:04:21.581Z,9.10
2022-11-18T07:06:49.740Z,9.00
2022-11-18T07:09:17.891Z,9.00
2022-11-18T07:11:47.214Z,9.10
2022-11-18T07:14:15.205Z,9.00
2022-11-18T07:16:43.095Z,9.10
2022-11-18T07:19:12.928Z,9.10
2022-11-18T07:21:41.411Z,9.00
2022-11-18T07:24:12.559Z,9.10
2022-11-18T07:26:40.463Z,9.10
2022-11-18T07:29:09.839Z,9.10
2022-11-18T07:31:39.635Z,9.10
2022-11-18T07:34:07.898Z,9.10
2022-11-18T07:36:36.342Z,9.10
2022-11-18T07:39:07.249Z,9.10
2022-11-18T07:41:35.587Z,9.20
2022-11-18T07:44:05.041Z,9.20
2022-11-18T07:46:35.476Z,9.30
2022-11-18T07:49:05.627Z,9.30
2022-11-18T07:51:36.270Z,9.30
2022-11-18T07:54:07.923Z,9.40
2022-11-18T07:56:35.801Z,9.40
2022-11-18T07:59:03.795Z,9.40
2022-11-18T08:01:32.099Z,9.40
2022-11-18T08:04:06.987Z,9.50
2022-11-18T08:06:36.002Z,9.50
2022-11-18T08:09:04.882Z,9.50
2022-11-18T08:11:33.073Z,9.50
2022-11-18T08:14:01.015Z,9.50
2022-11-18T08:16:28.937Z,9.50
2022-11-18T08:18:57.121Z,9.60
2022-11-18T08:21:26.301Z,9.60
2022-11-18T08:23:56.087Z,9.60
2022-11-18T08:26:25.075Z,9.60
2022-11-18T08:28:53.926Z,9.60
2022-11-18T08:31:24.339Z,9.60
2022-11-18T08:33:55.725Z,9.50
2022-11-18T08:36:26.494Z,9.60
2022-11-18T08:38:55.555Z,9.60
2022-11-18T08:41:32.866Z,9.60
2022-11-18T08:44:01.031Z,9.50
2022-11-18T08:46:28.986Z,9.70
2022-11-18T08:48:56.936Z,9.70
2022-11-18T08:51:27.053Z,9.70
2022-11-18T08:53:54.949Z,9.70
2022-11-18T08:56:24.538Z,9.80
2022-11-18T08:58:52.837Z,9.90
2022-11-18T09:01:20.851Z,9.90
2022-11-18T09:03:49.027Z,9.90
2022-11-18T09:06:19.564Z,10.00
2022-11-18T09:08:49.156Z,9.90
2022-11-18T09:11:18.791Z,9.90
2022-11-18T09:14:53.022Z,9.90
2022-11-18T09:16:36.243Z,9.80
2022-11-18T09:19:31.531Z,9.80
2022-11-18T09:21:53.186Z,9.80
2022-11-18T09:24:22.383Z,9.80
2022-11-18T09:26:50.779Z,9.80
2022-11-18T09:29:18.884Z,9.80
2022-11-18T09:31:46.983Z,9.90
2022-11-18T09:34:14.857Z,9.90
2022-11-18T09:36:42.719Z,9.80
2022-11-18T09:39:10.553Z,9.70
2022-11-18T09:41:46.324Z,9.80
2022-11-18T09:44:23.198Z,9.90
2022-11-18T09:47:05.078Z,9.90
2022-11-18T09:49:36.204Z,9.80
2022-11-18T09:52:08.653Z,9.80
2022-11-18T09:54:37.643Z,9.80
2022-11-18T09:57:14.545Z,9.90
2022-11-18T09:59:42.978Z,10.00
2022-11-18T10:02:42.412Z,10.00
2022-11-18T10:05:16.986Z,10.10
2022-11-18T10:07:51.750Z,10.10
2022-11-18T10:10:23.709Z,10.10
2022-11-18T10:13:00.121Z,10.20
2022-11-18T10:15:33.919Z,10.20
2022-11-18T10:18:37.923Z,10.20
2022-11-18T10:21:11.689Z,10.20
2022-11-18T10:23:52.554Z,10.20
2022-11-18T10:26:33.977Z,10.30
2022-11-18T10:29:04.307Z,10.40
2022-11-18T10:31:32.233Z,10.30
2022-11-18T10:34:01.096Z,10.40
2022-11-18T10:36:30.883Z,10.40
2022-11-18T10:39:13.977Z,10.30
2022-11-18T10:41:47.220Z,10.30
2022-11-18T10:44:32.602Z,10.40
2022-11-18T10:47:29.883Z,10.40
2022-11-18T10:49:59.941Z,10.30
2022-11-18T10:52:28.828Z,10.30
2022-11-18T10:55:21.106Z,10.30
2022-11-18T10:57:51.976Z,10.30
2022-11-18T11:00:41.246Z,10.30
2022-11-18T11:03:39.757Z,10.20
2022-11-18T11:06:39.125Z,10.30
2022-11-18T11:09:27.248Z,10.30
2022-11-18T11:12:01.429Z,10.20
2022-11-18T11:14:36.408Z,10.30
2022-11-18T11:17:11.148Z,10.30
2022-11-18T11:19:46.414Z,10.30
2022-11-18T11:22:14.373Z,10.50
2022-11-18T11:24:42.451Z,10.40
2022-11-18T11:30:20.082Z,10.60
2022-11-18T11:33:23.235Z,10.50
2022-11-18T11:36:04.648Z,10.50
2022-11-18T11:38:44.309Z,10.50
2022-11-18T11:41:21.630Z,10.50
2022-11-18T11:44:00.138Z,10.40
2022-11-18T11:46:33.742Z,10.30
2022-11-18T11:49:14.779Z,10.30
2022-11-18T11:51:51.349Z,10.40
2022-11-18T11:54:43.860Z,10.40
2022-11-18T11:57:20.292Z,10.40
2022-11-18T11:59:55.437Z,10.50
2022-11-18T12:02:56.947Z,10.60
2022-11-18T12:05:34.068Z,10.60
2022-11-18T12:08:04.348Z,10.70
2022-11-18T12:10:42.105Z,10.60
2022-11-18T12:13:32.995Z,10.50
2022-11-18T12:16:12.971Z,10.50
2022-11-18T12:18:46.210Z,10.60
2022-11-18T12:21:47.511Z,10.70
2022-11-18T12:24:43.941Z,10.80
2022-11-18T12:27:35.789Z,10.80
2022-11-18T12:30:04.821Z,10.80
2022-11-18T12:32:42.507Z,10.80
2022-11-18T12:35:27.295Z,10.90
2022-11-18T12:38:04.669Z,10.90
2022-11-18T12:40:50.569Z,10.90
2022-11-18T12:44:03.251Z,10.70
2022-11-18T12:46:50.168Z,10.70
2022-11-18T12:49:55.611Z,10.60
2022-11-18T12:52:54.655Z,10.70
2022-11-18T12:55:31.824Z,10.60
2022-11-18T12:58:01.129Z,10.60
2022-11-18T13:00:33.142Z,10.60
2022-11-18T13:03:02.528Z,10.70
2022-11-18T13:05:31.838Z,10.70
2022-11-18T13:08:15.571Z,10.60
2022-11-18T13:10:53.004Z,10.70
2022-11-18T13:13:31.577Z,10.70
2022-11-18T13:16:25.572Z,10.70
2022-11-18T13:18:54.818Z,10.70
2022-11-18T13:21:45.226Z,10.80
2022-11-18T13:24:14.197Z,10.80
2022-11-18T13:26:43.687Z,10.70
2022-11-18T13:29:32.939Z,10.70
2022-11-18T13:32:10.527Z,10.70
2022-11-18T13:34:46.491Z,10.70
2022-11-18T13:37:19.238Z,10.70
2022-11-18T13:39:49.158Z,10.70
2022-11-18T13:42:21.007Z,10.70
2022-11-18T13:44:55.270Z,10.70
2022-11-18T13:47:34.806Z,10.70
2022-11-18T13:50:12.621Z,10.80
2022-11-18T13:52:44.215Z,10.70
2022-11-18T13:55:19.775Z,10.60
2022-11-18T13:57:50.239Z,10.60
2022-11-18T14:00:27.652Z,10.60
2022-11-18T14:03:00.646Z,10.70
2022-11-18T14:05:31.700Z,10.60
2022-11-18T14:08:06.237Z,10.70
2022-11-18T14:10:41.365Z,10.70
2022-11-18T14:13:26.877Z,10.60
2022-11-18T14:15:57.202Z,10.70
2022-11-18T14:18:33.390Z,10.60
2022-11-18T14:21:02.962Z,10.50
2022-11-18T14:23:32.476Z,10.50
2022-11-18T14:26:01.980Z,10.50
2022-11-18T14:28:33.889Z,10.50
2022-11-18T14:31:07.280Z,10.50
2022-11-18T14:33:36.278Z,10.40
2022-11-18T14:36:10.701Z,10.40
2022-11-18T14:39:03.940Z,10.40
2022-11-18T14:41:50.749Z,10.40
2022-11-18T14:44:19.310Z,10.30
2022-11-18T14:46:52.271Z,10.40
2022-11-18T14:49:23.154Z,10.30
2022-11-18T14:51:52.078Z,10.40
2022-11-18T14:54:26.540Z,10.20
2022-11-18T14:56:57.679Z,10.30
2022-11-18T14:59:25.692Z,10.30
2022-11-18T15:01:56.311Z,10.30
2022-11-18T15:04:25.196Z,10.20
2022-11-18T15:06:53.261Z,10.20
2022-11-18T15:09:21.390Z,10.10
2022-11-18T15:11:49.237Z,10.10
2022-11-18T15:14:17.579Z,10.10
2022-11-18T15:16:45.725Z,9.90
2022-11-18T15:19:16.736Z,9.80
2022-11-18T15:21:45.297Z,9.80
2022-11-18T15:24:13.215Z,9.90
2022-11-18T15:26:43.448Z,9.80
2022-11-18T15:29:17.194Z,9.80
2022-11-18T15:31:45.044Z,9.80
2022-11-18T15:34:14.615Z,9.70
2022-11-18T15:36:42.465Z,9.70
2022-11-18T15:39:11.175Z,9.70
2022-11-18T15:41:40.471Z,9.70
2022-11-18T15:44:10.361Z,9.70
2022-11-18T15:46:38.411Z,9.80
2022-11-18T15:49:09.323Z,9.80
2022-11-18T15:51:40.166Z,9.80
2022-11-18T15:54:07.994Z,9.80
2022-11-18T15:56:36.030Z,9.80
2022-11-18T15:59:05.728Z,9.80
2022-11-18T16:01:35.102Z,9.80
2022-11-18T16:04:03.356Z,9.80
2022-11-18T16:06:31.370Z,9.80
2022-11-18T16:09:00.802Z,9.80
2022-11-18T16:11:46.967Z,9.70
2022-11-18T16:14:17.391Z,9.70
2022-11-18T16:16:47.159Z,9.70
2022-11-18T16:19:16.895Z,9.70
2022-11-18T16:21:46.878Z,9.70
2022-11-18T16:24:18.248Z,9.70
2022-11-18T16:26:46.440Z,9.70
2022-11-18T16:29:17.312Z,9.80
2022-11-18T16:31:50.385Z,9.80
2022-11-18T16:34:20.302Z,9.80
2022-11-18T16:36:50.322Z,9.70
2022-11-18T16:39:23.420Z,9.70
2022-11-18T16:41:52.373Z,9.70
2022-11-18T16:44:20.794Z,9.70
2022-11-18T16:46:50.292Z,9.70
2022-11-18T16:49:20.865Z,9.80
2022-11-18T16:51:50.495Z,9.80
2022-11-18T16:54:22.750Z,9.70
2022-11-18T16:56:51.427Z,9.70
2022-11-18T16:59:21.676Z,9.60
2022-11-18T17:01:50.716Z,9.70
2022-11-18T17:04:18.989Z,9.60
2022-11-18T17:06:47.267Z,9.60
2022-11-18T17:09:17.411Z,9.60
2022-11-18T17:11:46.818Z,9.50
2022-11-18T17:14:14.720Z,9.60
2022-11-18T17:16:42.833Z,9.50
2022-11-18T17:19:14.899Z,9.60
2022-11-18T17:21:43.026Z,9.60
2022-11-18T17:24:13.497Z,9.60
2022-11-18T17:26:41.494Z,9.60
2022-11-18T17:29:12.638Z,9.60
2022-11-18T17:31:40.664Z,9.50
2022-11-18T17:34:11.754Z,9.50
2022-11-18T17:36:39.672Z,9.50
2022-11-18T17:39:07.748Z,9.40
2022-11-18T17:41:53.061Z,9.40
2022-11-18T17:44:22.462Z,9.40
2022-11-18T17:46:50.278Z,9.50
2022-11-18T17:49:21.289Z,9.40
2022-11-18T17:51:51.003Z,9.30
2022-11-18T17:54:19.849Z,9.30
2022-11-18T17:56:48.611Z,9.30
2022-11-18T17:59:17.445Z,9.30
2022-11-18T18:01:47.744Z,9.30
2022-11-18T18:04:21.238Z,9.30
2022-11-18T18:06:51.480Z,9.30
2022-11-18T18:09:21.670Z,9.30
2022-11-18T18:11:51.927Z,9.20
2022-11-18T18:14:19.292Z,9.20
2022-11-18T18:16:50.535Z,9.20
2022-11-18T18:19:19.929Z,9.20
2022-11-18T18:21:48.356Z,9.20
2022-11-18T18:24:19.375Z,9.20
2022-11-18T18:26:47.676Z,9.10
2022-11-18T18:29:15.704Z,9.10
2022-11-18T18:31:43.539Z,9.10
2022-11-18T18:34:12.816Z,9.00
2022-11-18T18:36:40.744Z,8.90
2022-11-18T18:39:08.642Z,9.00
2022-11-18T18:41:38.523Z,9.00
2022-11-18T18:44:06.479Z,9.00
2022-11-18T18:46:33.346Z,8.90
2022-11-18T18:49:03.982Z,8.90
2022-11-18T18:51:36.792Z,9.00
2022-11-18T18:54:05.593Z,9.00
2022-11-18T18:56:33.874Z,8.90
2022-11-18T18:59:01.985Z,8.90
2022-11-18T19:01:30.011Z,8.80
2022-11-18T19:04:00.292Z,8.80
2022-11-18T19:09:20.975Z,8.80
2022-11-18T19:12:06.368Z,8.80
2022-11-18T19:14:35.252Z,8.80
2022-11-18T19:17:09.586Z,8.80
2022-11-18T19:19:59.081Z,8.80
2022-11-18T19:22:29.268Z,8.80
2022-11-18T19:24:59.648Z,8.70
2022-11-18T19:27:27.892Z,8.70
2022-11-18T19:29:55.737Z,8.80
2022-11-18T19:32:23.667Z,8.80
2022-11-18T19:34:51.717Z,8.80
2022-11-18T19:37:19.622Z,8.90
2022-11-18T19:39:47.462Z,8.90
2022-11-18T19:42:16.781Z,8.90
2022-11-18T19:44:44.791Z,9.00
2022-11-18T19:47:12.639Z,9.00
2022-11-18T19:49:40.483Z,9.00
2022-11-18T19:52:08.482Z,9.00
2022-11-18T19:54:36.338Z,9.10
2022-11-18T19:57:04.678Z,9.10
2022-11-18T19:59:34.064Z,9.10
2022-11-18T20:02:01.967Z,9.10
2022-11-18T20:04:29.909Z,9.10
2022-11-18T20:06:58.016Z,9.10
2022-11-18T20:09:26.364Z,9.00
2022-11-18T20:11:54.410Z,9.10
2022-11-18T20:14:22.346Z,9.10
2022-11-18T20:16:52.509Z,9.00
2022-11-18T20:19:20.741Z,9.00
2022-11-18T20:21:49.355Z,9.10
2022-11-18T20:24:19.385Z,9.20
2022-11-18T20:26:47.460Z,9.10
2022-11-18T20:29:15.447Z,9.10
2022-11-18T20:31:43.567Z,9.10
2022-11-18T20:34:15.179Z,9.10
2022-11-18T20:36:43.645Z,9.00
2022-11-18T20:39:14.744Z,9.00
2022-11-18T20:41:42.631Z,9.00
2022-11-18T20:44:10.495Z,9.00
2022-11-18T20:46:38.621Z,9.00
2022-11-18T20:49:06.479Z,9.10
2022-11-18T20:51:35.850Z,9.10
2022-11-18T20:54:08.094Z,9.10
2022-11-18T20:56:35.935Z,9.10
2022-11-18T20:59:03.756Z,9.10
2022-11-18T21:01:32.977Z,9.10
2022-11-18T21:04:03.431Z,9.10
2022-11-18T21:06:33.011Z,9.20
2022-11-18T21:09:04.175Z,9.20
2022-11-18T21:11:34.059Z,9.20
2022-11-18T21:14:25.293Z,9.20
2022-11-18T21:16:55.261Z,9.30
2022-11-18T21:19:23.523Z,9.30
2022-11-18T21:21:52.490Z,9.20
2022-11-18T21:24:23.810Z,9.30
2022-11-18T21:26:54.708Z,9.20
2022-11-18T21:29:23.481Z,9.20
2022-11-18T21:31:52.241Z,9.20
2022-11-18T21:34:20.694Z,9.20
2022-11-18T21:36:53.163Z,9.20
2022-11-18T21:39:24.884Z,9.30
2022-11-18T21:41:56.398Z,9.40
2022-11-18T21:44:26.102Z,9.30
2022-11-18T21:46:53.994Z,9.30
2022-11-18T21:49:22.802Z,9.30
2022-11-18T21:51:50.806Z,9.30
2022-11-18T21:54:19.100Z,9.30
2022-11-18T21:56:48.368Z,9.40
2022-11-18T21:59:16.555Z,9.40
2022-11-18T22:01:44.775Z,9.30
2022-11-18T22:04:32.637Z,9.30
2022-11-18T22:07:00.530Z,9.30
2022-11-18T22:09:34.647Z,9.30
2022-11-18T22:12:06.622Z,9.20
2022-11-18T22:14:34.648Z,9.10
2022-11-18T22:17:02.583Z,9.00
2022-11-18T22:19:30.537Z,9.00
2022-11-18T22:21:58.437Z,9.00
2022-11-18T22:24:26.790Z,9.00
2022-11-18T22:26:54.622Z,9.00
2022-11-18T22:29:25.904Z,8.90
2022-11-18T22:31:54.003Z,9.00
2022-11-18T22:34:21.873Z,8.90
2022-11-18T22:36:49.767Z,8.90
2022-11-18T22:39:17.960Z,8.90
2022-11-18T22:42:03.299Z,8.90
2022-11-18T22:44:32.507Z,8.90
2022-11-18T22:47:00.315Z,8.80
2022-11-18T22:49:28.156Z,8.80
2022-11-18T22:51:56.328Z,8.80
2022-11-18T22:54:40.276Z,8.90
2022-11-18T22:57:08.678Z,8.80
2022-11-18T22:59:37.984Z,8.70
2022-11-18T23:02:05.911Z,8.70
2022-11-18T23:04:33.795Z,8.70
2022-11-18T23:07:01.805Z,8.60
2022-11-18T23:09:29.735Z,8.60
2022-11-18T23:12:15.227Z,8.60
2022-11-18T23:14:44.434Z,8.60
2022-11-18T23:17:12.382Z,8.60
2022-11-18T23:19:43.518Z,8.60
2022-11-18T23:22:11.449Z,8.60
2022-11-18T23:24:39.359Z,8.60
2022-11-18T23:27:07.558Z,8.60
2022-11-18T23:29:35.378Z,8.60
2022-11-18T23:32:04.961Z,8.60
2022-11-18T23:34:32.813Z,8.60
2022-11-18T23:37:00.645Z,8.60
2022-11-18T23:39:28.488Z,8.60
2022-11-18T23:41:56.316Z,8.50
2022-11-18T23:44:44.146Z,8.40
2022-11-18T23:47:13.838Z,8.50
2022-11-18T23:49:41.722Z,8.50
2022-11-18T23:52:09.582Z,8.40
2022-11-18T23:54:37.438Z,8.40
2022-11-18T23:57:05.627Z,8.40
2022-11-18T23:59:34.020Z,8.40
